createdAt,value
2019-03-23T00:01:15.977Z,59.15
2019-03-23T00:03:52.612Z,59.03
2019-03-23T00:06:30.844Z,58.71
2019-03-23T00:08:58.570Z,59.02
2019-03-23T00:11:29.821Z,59.24
2019-03-23T00:14:01.172Z,59.38
2019-03-23T00:16:33.347Z,59.43
2019-03-23T00:19:05.129Z,59.18
2019-03-23T00:21:44.847Z,59.75
2019-03-23T00:24:19.821Z,59.27
2019-03-23T00:26:52.326Z,60.04
2019-03-23T00:29:24.782Z,59.88
2019-03-23T00:32:05.157Z,60.43
2019-03-23T00:34:36.806Z,60.08
2019-03-23T00:37:09.013Z,60.33
2019-03-23T00:39:44.396Z,60.42
2019-03-23T00:42:23.526Z,60.07
2019-03-23T00:45:24.525Z,61.81
2019-03-23T00:47:55.767Z,60.97
2019-03-23T00:50:27.090Z,60.94
2019-03-23T00:53:03.800Z,62.05
2019-03-23T00:55:35.112Z,61.89
2019-03-23T00:58:10.979Z,61.73
2019-03-23T01:00:42.395Z,61.26
2019-03-23T01:03:13.575Z,60.90
2019-03-23T01:05:44.960Z,60.54
2019-03-23T01:08:16.451Z,60.77
2019-03-23T01:10:47.722Z,61.15
2019-03-23T01:13:22.328Z,61.57
2019-03-23T01:16:03.705Z,61.88
2019-03-23T01:18:34.954Z,62.18
2019-03-23T01:21:07.338Z,62.29
2019-03-23T01:23:38.702Z,63.03
2019-03-23T01:26:10.113Z,63.74
2019-03-23T01:28:41.497Z,64.13
2019-03-23T01:31:12.771Z,64.98
2019-03-23T01:33:44.182Z,65.71
2019-03-23T01:36:15.929Z,66.00
2019-03-23T01:38:47.212Z,66.40
2019-03-23T01:41:18.524Z,67.29
2019-03-23T01:43:49.783Z,67.08
2019-03-23T01:46:21.286Z,67.40
2019-03-23T01:48:52.681Z,67.69
2019-03-23T01:51:30.783Z,67.52
2019-03-23T01:54:03.163Z,68.32
2019-03-23T01:56:36.386Z,69.36
2019-03-23T01:59:07.854Z,70.34
2019-03-23T02:01:51.637Z,70.54
2019-03-23T02:04:24.070Z,72.28
2019-03-23T02:07:01.337Z,72.48
2019-03-23T02:09:39.828Z,73.23
2019-03-23T02:12:12.346Z,73.76
2019-03-23T02:14:49.571Z,74.54
2019-03-23T02:17:27.129Z,74.25
2019-03-23T02:19:58.496Z,73.71
2019-03-23T02:22:31.388Z,74.35
2019-03-23T02:25:09.093Z,73.09
2019-03-23T02:27:55.861Z,72.83
2019-03-23T02:30:27.184Z,72.67
2019-03-23T02:32:58.445Z,73.16
2019-03-23T02:35:36.110Z,73.19
2019-03-23T02:38:18.497Z,74.30
2019-03-23T02:40:53.244Z,73.61
2019-03-23T02:43:36.683Z,74.17
2019-03-23T02:46:08.152Z,74.41
2019-03-23T02:48:39.478Z,74.70
2019-03-23T02:51:16.975Z,74.32
2019-03-23T02:53:48.527Z,75.24
2019-03-23T02:56:24.241Z,74.90
2019-03-23T02:58:59.772Z,74.74
2019-03-23T03:01:32.116Z,74.37
2019-03-23T03:04:05.610Z,75.01
2019-03-23T03:06:40.504Z,73.93
2019-03-23T03:09:11.887Z,73.88
2019-03-23T03:11:44.306Z,73.75
2019-03-23T03:14:15.637Z,74.39
2019-03-23T03:16:47.004Z,74.84
2019-03-23T03:19:18.211Z,73.93
2019-03-23T03:21:53.449Z,73.90
2019-03-23T03:24:24.940Z,75.05
2019-03-23T03:26:56.346Z,75.22
2019-03-23T03:29:27.611Z,74.15
2019-03-23T03:32:03.033Z,73.87
2019-03-23T03:34:34.316Z,73.78
2019-03-23T03:37:05.913Z,73.45
2019-03-23T03:39:37.068Z,73.63
2019-03-23T03:42:08.487Z,73.02
2019-03-23T03:44:39.565Z,72.43
2019-03-23T03:47:11.141Z,72.02
2019-03-23T03:49:44.452Z,72.78
2019-03-23T03:52:23.254Z,72.84
2019-03-23T03:55:10.780Z,72.67
2019-03-23T03:57:42.296Z,72.64
2019-03-23T04:00:18.914Z,72.47
2019-03-23T04:02:55.689Z,71.89
2019-03-23T04:05:33.948Z,72.40
2019-03-23T04:08:11.559Z,72.93
2019-03-23T04:10:41.385Z,72.79
2019-03-23T04:13:12.730Z,72.11
2019-03-23T04:15:43.945Z,72.42
2019-03-23T04:18:26.486Z,72.00
2019-03-23T04:20:57.837Z,71.77
2019-03-23T04:23:29.092Z,72.32
2019-03-23T04:26:00.474Z,71.81
2019-03-23T04:28:31.781Z,72.03
2019-03-23T04:31:06.316Z,71.45
2019-03-23T04:33:50.878Z,71.87
2019-03-23T04:36:22.421Z,71.75
2019-03-23T04:38:54.057Z,71.13
2019-03-23T04:41:25.491Z,70.97
2019-03-23T04:43:57.858Z,70.44
2019-03-23T04:46:29.118Z,70.51
2019-03-23T04:49:00.463Z,70.85
2019-03-23T04:51:32.060Z,69.86
2019-03-23T04:54:03.410Z,70.00
2019-03-23T04:56:36.725Z,70.47
2019-03-23T04:59:10.143Z,70.48
2019-03-23T05:01:41.428Z,70.16
2019-03-23T05:04:17.148Z,70.08
2019-03-23T05:06:48.360Z,69.65
2019-03-23T05:09:41.982Z,69.78
2019-03-23T05:12:13.407Z,69.94
2019-03-23T05:14:44.697Z,69.86
2019-03-23T05:17:16.041Z,69.32
2019-03-23T05:19:48.753Z,68.97
2019-03-23T05:22:20.176Z,69.31
2019-03-23T05:24:51.451Z,69.40
2019-03-23T05:27:22.810Z,68.58
2019-03-23T05:30:01.251Z,68.46
2019-03-23T05:32:42.411Z,68.11
2019-03-23T05:35:13.947Z,67.84
2019-03-23T05:37:49.410Z,68.42
2019-03-23T05:40:24.173Z,68.61
2019-03-23T05:42:59.502Z,69.31
2019-03-23T05:45:33.984Z,68.81
2019-03-23T05:48:05.289Z,68.75
2019-03-23T05:50:43.852Z,68.44
2019-03-23T05:53:15.230Z,69.33
2019-03-23T05:55:46.598Z,69.93
2019-03-23T05:58:29.125Z,69.51
2019-03-23T06:01:00.260Z,68.79
2019-03-23T06:03:40.054Z,68.53
2019-03-23T06:06:11.421Z,67.77
2019-03-23T06:08:54.603Z,68.29
2019-03-23T06:11:23.947Z,68.04
2019-03-23T06:13:56.350Z,67.43
2019-03-23T06:16:29.914Z,67.46
2019-03-23T06:19:01.284Z,67.64
2019-03-23T06:21:36.947Z,67.11
2019-03-23T06:24:09.568Z,67.40
2019-03-23T06:26:40.789Z,67.90
2019-03-23T06:29:17.816Z,68.36
2019-03-23T06:31:51.253Z,67.49
2019-03-23T06:34:24.699Z,68.90
2019-03-23T06:36:56.229Z,67.55
2019-03-23T06:39:38.041Z,67.21
2019-03-23T06:42:10.456Z,67.03
2019-03-23T06:44:47.329Z,67.77
2019-03-23T06:47:22.013Z,67.41
2019-03-23T06:49:53.649Z,67.17
2019-03-23T06:52:25.057Z,67.15
2019-03-23T06:54:57.651Z,67.15
2019-03-23T06:57:29.005Z,67.31
2019-03-23T07:00:10.365Z,67.50
2019-03-23T07:02:42.054Z,67.13
2019-03-23T07:05:16.965Z,67.11
2019-03-23T07:07:48.364Z,66.12
2019-03-23T07:10:32.331Z,66.31
2019-03-23T07:13:09.626Z,66.41
2019-03-23T07:15:40.917Z,66.06
2019-03-23T07:18:12.705Z,66.11
2019-03-23T07:20:47.984Z,65.53
2019-03-23T07:23:19.359Z,65.25
2019-03-23T07:25:51.807Z,65.47
2019-03-23T07:28:23.276Z,65.31
2019-03-23T07:30:56.157Z,65.67
2019-03-23T07:33:32.282Z,65.83
2019-03-23T07:36:03.753Z,65.79
2019-03-23T07:38:35.810Z,65.57
2019-03-23T07:41:07.229Z,66.93
2019-03-23T07:43:44.234Z,65.51
2019-03-23T07:46:24.538Z,65.75
2019-03-23T07:48:55.967Z,66.25
2019-03-23T07:51:27.160Z,64.91
2019-03-23T07:53:58.787Z,65.26
2019-03-23T07:56:30.516Z,65.35
2019-03-23T07:59:13.374Z,65.00
2019-03-23T08:01:50.034Z,64.84
2019-03-23T08:04:21.535Z,64.87
2019-03-23T08:06:54.971Z,64.19
2019-03-23T08:09:37.700Z,62.70
2019-03-23T08:12:07.373Z,62.07
2019-03-23T08:14:45.545Z,63.17
2019-03-23T08:17:25.917Z,64.12
2019-03-23T08:20:04.092Z,64.20
2019-03-23T08:22:37.894Z,63.89
2019-03-23T08:25:09.222Z,64.09
2019-03-23T08:27:41.754Z,63.14
2019-03-23T08:30:13.156Z,63.82
2019-03-23T08:32:56.629Z,63.60
2019-03-23T08:35:28.357Z,63.69
2019-03-23T08:38:08.151Z,63.52
2019-03-23T08:40:51.737Z,63.80
2019-03-23T08:43:28.325Z,64.43
2019-03-23T08:45:59.701Z,63.96
2019-03-23T08:48:38.198Z,63.81
2019-03-23T08:51:11.545Z,64.11
2019-03-23T08:53:43.161Z,63.22
2019-03-23T08:56:19.482Z,64.43
2019-03-23T08:59:06.289Z,63.57
2019-03-23T09:01:38.145Z,62.92
2019-03-23T09:04:09.976Z,63.11
2019-03-23T09:06:47.476Z,63.23
2019-03-23T09:09:18.975Z,63.83
2019-03-23T09:11:50.791Z,62.70
2019-03-23T09:14:23.558Z,63.32
2019-03-23T09:16:56.223Z,62.95
2019-03-23T09:19:33.430Z,62.48
2019-03-23T09:22:05.793Z,62.49
2019-03-23T09:24:50.436Z,63.22
2019-03-23T09:27:32.359Z,62.92
2019-03-23T09:30:04.656Z,63.30
2019-03-23T09:32:36.125Z,63.01
2019-03-23T09:35:09.497Z,64.21
2019-03-23T09:37:41.832Z,63.15
2019-03-23T09:40:13.652Z,62.78
2019-03-23T09:42:51.579Z,62.33
2019-03-23T09:45:25.188Z,62.54
2019-03-23T09:48:08.400Z,62.30
2019-03-23T09:50:46.822Z,62.32
2019-03-23T09:53:39.100Z,63.07
2019-03-23T09:56:10.432Z,62.59
2019-03-23T09:58:52.368Z,62.01
2019-03-23T10:01:23.610Z,61.83
2019-03-23T10:03:54.908Z,61.67
2019-03-23T10:06:26.403Z,61.34
2019-03-23T10:08:58.377Z,61.81
2019-03-23T10:11:31.890Z,62.93
2019-03-23T10:14:03.331Z,61.68
2019-03-23T10:16:34.608Z,63.20
2019-03-23T10:19:06.069Z,60.84
2019-03-23T10:21:38.641Z,59.04
2019-03-23T10:24:10.539Z,59.09
2019-03-23T10:26:41.826Z,59.26
2019-03-23T10:29:13.538Z,59.42
2019-03-23T10:31:44.897Z,60.07
2019-03-23T10:34:16.141Z,60.25
2019-03-23T10:36:47.451Z,59.10
2019-03-23T10:39:21.920Z,59.37
2019-03-23T10:41:53.438Z,59.05
2019-03-23T10:44:24.843Z,59.15
2019-03-23T10:46:56.238Z,58.40
2019-03-23T10:49:27.788Z,57.86
2019-03-23T10:52:00.850Z,57.91
2019-03-23T10:54:32.419Z,57.35
2019-03-23T10:57:10.681Z,57.59
2019-03-23T10:59:42.124Z,56.53
2019-03-23T11:02:13.385Z,56.89
2019-03-23T11:04:44.817Z,57.55
2019-03-23T11:07:25.032Z,56.96
2019-03-23T11:09:56.320Z,57.62
2019-03-23T11:12:27.623Z,57.67
2019-03-23T11:15:16.794Z,57.82
2019-03-23T11:17:53.317Z,57.31
2019-03-23T11:20:24.599Z,57.76
2019-03-23T11:23:12.617Z,57.49
2019-03-23T11:25:43.934Z,58.08
2019-03-23T11:28:15.174Z,57.92
2019-03-23T11:30:49.023Z,57.76
2019-03-23T11:33:22.653Z,57.04
2019-03-23T11:35:58.056Z,56.48
2019-03-23T11:38:30.937Z,58.06
2019-03-23T11:41:03.591Z,57.85
2019-03-23T11:43:55.705Z,57.17
2019-03-23T11:46:27.258Z,56.67
2019-03-23T11:49:06.376Z,55.75
2019-03-23T11:51:40.023Z,56.40
2019-03-23T11:54:11.512Z,56.48
2019-03-23T11:56:43.852Z,56.15
2019-03-23T11:59:15.055Z,56.96
2019-03-23T12:01:51.671Z,56.26
2019-03-23T12:04:26.044Z,56.77
2019-03-23T12:06:58.561Z,57.36
2019-03-23T12:09:43.074Z,57.29
2019-03-23T12:12:14.482Z,57.77
2019-03-23T12:14:45.776Z,57.78
2019-03-23T12:17:18.912Z,58.22
2019-03-23T12:19:50.210Z,58.13
2019-03-23T12:22:23.016Z,58.15
2019-03-23T12:25:02.698Z,57.76
2019-03-23T12:27:39.210Z,58.20
2019-03-23T12:30:12.278Z,58.02
2019-03-23T12:32:43.595Z,58.32
2019-03-23T12:35:15.920Z,57.83
2019-03-23T12:38:16.246Z,57.67
2019-03-23T12:40:58.969Z,57.68
2019-03-23T12:43:30.407Z,58.71
2019-03-23T12:46:08.127Z,57.72
2019-03-23T12:48:39.956Z,57.11
2019-03-23T12:51:17.125Z,58.57
2019-03-23T12:53:55.208Z,57.95
2019-03-23T12:56:27.325Z,59.02
2019-03-23T12:59:09.287Z,59.05
2019-03-23T13:01:41.850Z,58.65
2019-03-23T13:04:13.691Z,58.40
2019-03-23T13:06:45.130Z,58.28
2019-03-23T13:09:18.991Z,58.23
2019-03-23T13:11:52.625Z,57.03
2019-03-23T13:14:26.640Z,58.53
2019-03-23T13:16:59.068Z,59.08
2019-03-23T13:19:32.654Z,58.67
2019-03-23T13:22:31.652Z,57.79
2019-03-23T13:25:03.257Z,58.96
2019-03-23T13:27:43.660Z,58.86
2019-03-23T13:30:15.356Z,59.11
2019-03-23T13:32:51.648Z,58.45
2019-03-23T13:35:25.022Z,58.82
2019-03-23T13:38:01.860Z,58.99
2019-03-23T13:40:36.283Z,58.72
2019-03-23T13:43:10.210Z,58.81
2019-03-23T13:45:47.625Z,58.50
2019-03-23T13:48:24.537Z,58.83
2019-03-23T13:51:04.126Z,59.34
2019-03-23T13:53:37.632Z,59.13
2019-03-23T13:56:08.479Z,58.67
2019-03-23T13:58:41.245Z,59.14
2019-03-23T14:01:21.450Z,59.88
2019-03-23T14:03:53.422Z,59.66
2019-03-23T14:06:30.156Z,59.36
2019-03-23T14:09:02.168Z,58.29
2019-03-23T14:11:38.403Z,59.21
2019-03-23T14:14:11.477Z,58.22
2019-03-23T14:16:44.249Z,58.71
2019-03-23T14:19:27.070Z,60.32
2019-03-23T14:22:00.499Z,59.44
2019-03-23T14:24:48.891Z,58.96
2019-03-23T14:27:20.167Z,60.02
2019-03-23T14:29:53.483Z,60.39
2019-03-23T14:32:26.011Z,59.89
2019-03-23T14:35:03.841Z,60.25
2019-03-23T14:37:40.378Z,60.22
2019-03-23T14:40:28.562Z,59.81
2019-03-23T14:43:05.081Z,59.99
2019-03-23T14:45:48.612Z,60.49
2019-03-23T14:48:20.981Z,60.46
2019-03-23T14:50:54.929Z,60.55
2019-03-23T14:53:30.757Z,60.94
2019-03-23T14:56:03.150Z,60.56
2019-03-23T14:58:34.661Z,60.82
2019-03-23T15:01:09.453Z,61.06
2019-03-23T15:03:52.906Z,60.91
2019-03-23T15:06:24.237Z,60.98
2019-03-23T15:09:06.742Z,60.91
2019-03-23T15:11:38.230Z,60.67
2019-03-23T15:14:09.674Z,61.34
2019-03-23T15:16:44.915Z,61.79
2019-03-23T15:19:17.068Z,61.07
2019-03-23T15:21:50.562Z,61.51
2019-03-23T15:24:23.209Z,60.89
2019-03-23T15:26:55.960Z,61.72
2019-03-23T15:29:27.350Z,61.11
2019-03-23T15:31:59.163Z,61.72
2019-03-23T15:34:30.600Z,61.94
2019-03-23T15:37:02.013Z,61.91
2019-03-23T15:39:40.511Z,61.95
2019-03-23T15:42:11.791Z,62.23
2019-03-23T15:44:45.823Z,62.30
2019-03-23T15:47:20.465Z,62.18
2019-03-23T15:49:51.895Z,62.81
2019-03-23T15:52:25.623Z,62.74
2019-03-23T15:54:57.875Z,62.56
2019-03-23T15:57:31.332Z,62.51
2019-03-23T16:00:05.343Z,63.44
2019-03-23T16:02:36.717Z,63.00
2019-03-23T16:05:09.477Z,63.10
2019-03-23T16:07:42.236Z,62.99
2019-03-23T16:10:41.390Z,63.29
2019-03-23T16:13:12.647Z,63.33
2019-03-23T16:15:44.073Z,63.71
2019-03-23T16:18:15.774Z,63.92
2019-03-23T16:20:47.070Z,63.69
2019-03-23T16:23:22.268Z,64.41
2019-03-23T16:25:56.087Z,63.63
2019-03-23T16:28:47.786Z,63.62
2019-03-23T16:31:19.097Z,63.93
2019-03-23T16:33:50.518Z,64.01
2019-03-23T16:36:22.358Z,63.90
2019-03-23T16:38:55.578Z,64.60
2019-03-23T16:41:27.816Z,64.29
2019-03-23T16:44:02.167Z,64.79
2019-03-23T16:46:35.674Z,64.37
2019-03-23T16:49:18.772Z,64.65
2019-03-23T16:51:51.140Z,64.24
2019-03-23T16:54:22.371Z,63.88
2019-03-23T16:56:53.714Z,64.00
2019-03-23T16:59:25.079Z,64.05
2019-03-23T17:01:57.907Z,64.47
2019-03-23T17:04:30.159Z,63.85
2019-03-23T17:07:01.434Z,64.28
2019-03-23T17:09:33.298Z,64.35
2019-03-23T17:12:12.144Z,64.21
2019-03-23T17:14:43.388Z,64.41
2019-03-23T17:17:18.801Z,64.25
2019-03-23T17:20:03.447Z,64.36
2019-03-23T17:22:40.288Z,64.67
2019-03-23T17:25:11.517Z,64.97
2019-03-23T17:27:45.091Z,64.76
2019-03-23T17:30:19.569Z,64.79
2019-03-23T17:32:50.587Z,65.35
2019-03-23T17:35:24.163Z,65.92
2019-03-23T17:37:55.605Z,66.97
2019-03-23T17:40:32.771Z,66.80
2019-03-23T17:43:06.203Z,68.10
2019-03-23T17:45:38.081Z,68.65
2019-03-23T17:48:09.583Z,69.54
2019-03-23T17:50:41.812Z,70.86
2019-03-23T17:53:13.237Z,72.03
2019-03-23T17:55:46.005Z,72.28
2019-03-23T17:58:24.622Z,72.89
2019-03-23T18:01:19.335Z,72.45
2019-03-23T18:03:52.603Z,74.00
2019-03-23T18:06:23.913Z,74.53
2019-03-23T18:08:56.310Z,73.63
2019-03-23T18:11:33.294Z,74.13
2019-03-23T18:14:04.734Z,74.68
2019-03-23T18:16:36.201Z,75.14
2019-03-23T18:19:20.598Z,75.38
2019-03-23T18:22:03.151Z,74.84
2019-03-23T18:24:38.116Z,76.36
2019-03-23T18:27:09.740Z,76.36
2019-03-23T18:29:43.026Z,76.18
2019-03-23T18:32:15.408Z,76.23
2019-03-23T18:34:47.088Z,74.91
2019-03-23T18:37:20.908Z,74.94
2019-03-23T18:40:01.325Z,74.77
2019-03-23T18:42:34.980Z,74.95
2019-03-23T18:45:07.436Z,74.88
2019-03-23T18:47:38.769Z,73.74
2019-03-23T18:50:17.134Z,74.46
2019-03-23T18:52:50.383Z,73.76
2019-03-23T18:55:24.933Z,73.74
2019-03-23T18:57:57.950Z,74.36
2019-03-23T19:00:43.292Z,73.92
2019-03-23T19:03:14.497Z,74.72
2019-03-23T19:05:50.361Z,75.14
2019-03-23T19:08:24.948Z,74.78
2019-03-23T19:10:56.190Z,73.73
2019-03-23T19:13:37.583Z,74.09
2019-03-23T19:16:01.073Z,74.84
2019-03-23T19:18:34.599Z,73.83
2019-03-23T19:21:11.080Z,73.87
2019-03-23T19:23:48.580Z,73.80
2019-03-23T19:26:20.004Z,74.45
2019-03-23T19:28:53.009Z,74.97
2019-03-23T19:31:26.393Z,74.72
2019-03-23T19:34:02.878Z,75.08
2019-03-23T19:36:34.106Z,74.50
2019-03-23T19:39:08.820Z,74.42
2019-03-23T19:41:41.191Z,74.61
2019-03-23T19:44:15.719Z,74.10
2019-03-23T19:46:47.304Z,74.35
2019-03-23T19:49:20.145Z,74.66
2019-03-23T19:51:51.581Z,75.20
2019-03-23T19:54:23.858Z,75.60
2019-03-23T19:57:00.692Z,74.75
2019-03-23T19:59:39.378Z,74.65
2019-03-23T20:02:11.190Z,74.79
2019-03-23T20:04:42.562Z,74.31
2019-03-23T20:07:14.757Z,75.11
2019-03-23T20:09:46.028Z,75.22
2019-03-23T20:12:20.874Z,74.89
2019-03-23T20:14:52.674Z,74.71
2019-03-23T20:17:28.072Z,73.80
2019-03-23T20:20:00.721Z,73.19
2019-03-23T20:22:34.621Z,74.10
2019-03-23T20:25:06.875Z,74.30
2019-03-23T20:27:45.345Z,74.21
2019-03-23T20:30:22.794Z,73.86
2019-03-23T20:33:06.050Z,72.97
2019-03-23T20:35:37.925Z,72.36
2019-03-23T20:38:09.495Z,72.35
2019-03-23T20:40:44.007Z,72.35
2019-03-23T20:43:16.478Z,71.67
2019-03-23T20:45:48.569Z,70.79
2019-03-23T20:48:23.645Z,71.18
2019-03-23T20:50:56.039Z,71.83
2019-03-23T20:53:38.137Z,70.95
2019-03-23T20:56:10.758Z,70.24
2019-03-23T20:58:43.477Z,71.24
2019-03-23T21:01:14.798Z,70.61
2019-03-23T21:03:48.254Z,70.70
2019-03-23T21:06:20.749Z,70.59
2019-03-23T21:09:08.419Z,69.19
2019-03-23T21:11:40.302Z,68.99
2019-03-23T21:14:20.657Z,70.68
2019-03-23T21:16:56.156Z,69.97
2019-03-23T21:19:34.991Z,69.44
2019-03-23T21:22:06.693Z,69.86
2019-03-23T21:24:38.360Z,69.88
2019-03-23T21:27:11.889Z,69.09
2019-03-23T21:29:44.557Z,68.78
2019-03-23T21:32:35.319Z,68.79
2019-03-23T21:35:07.687Z,68.04
2019-03-23T21:37:40.629Z,68.26
2019-03-23T21:40:17.418Z,67.53
2019-03-23T21:42:49.809Z,67.47
2019-03-23T21:45:22.182Z,67.65
2019-03-23T21:47:55.602Z,67.75
2019-03-23T21:50:28.764Z,66.66
2019-03-23T21:53:02.131Z,66.00
2019-03-23T21:55:36.314Z,66.32
2019-03-23T21:58:08.563Z,66.00
2019-03-23T22:00:42.414Z,66.12
2019-03-23T22:03:16.175Z,67.46
2019-03-23T22:05:50.373Z,66.52
2019-03-23T22:08:28.392Z,66.17
2019-03-23T22:11:01.210Z,66.03
2019-03-23T22:13:34.216Z,65.62
2019-03-23T22:16:06.954Z,65.36
2019-03-23T22:18:39.605Z,64.80
2019-03-23T22:21:11.381Z,64.88
2019-03-23T22:23:50.829Z,64.29
2019-03-23T22:26:34.349Z,64.21
2019-03-23T22:29:10.509Z,64.15
2019-03-23T22:31:52.643Z,64.90
2019-03-23T22:34:27.899Z,64.88
2019-03-23T22:36:59.156Z,65.24
2019-03-23T22:39:30.411Z,64.23
2019-03-23T22:42:01.775Z,64.41
2019-03-23T22:44:40.259Z,64.61
2019-03-23T22:47:11.489Z,64.79
2019-03-23T22:49:48.412Z,64.39
2019-03-23T22:52:20.013Z,63.40
2019-03-23T22:54:51.836Z,64.44
2019-03-23T22:57:23.035Z,64.21
2019-03-23T22:59:54.739Z,64.07
2019-03-23T23:02:27.133Z,63.55
2019-03-23T23:04:59.289Z,64.21
2019-03-23T23:07:30.695Z,64.34
2019-03-23T23:10:02.004Z,65.01
2019-03-23T23:12:33.271Z,64.89
2019-03-23T23:15:05.881Z,65.93
2019-03-23T23:17:39.200Z,65.79
2019-03-23T23:20:12.447Z,66.10
2019-03-23T23:22:49.975Z,66.94
2019-03-23T23:25:22.390Z,67.12
2019-03-23T23:28:03.521Z,66.50
2019-03-23T23:30:34.758Z,65.56
2019-03-23T23:33:13.314Z,66.24
2019-03-23T23:35:45.894Z,66.91
2019-03-23T23:38:21.195Z,66.40
2019-03-23T23:40:52.672Z,67.53
2019-03-23T23:43:47.192Z,66.92
2019-03-23T23:46:18.728Z,66.66
2019-03-23T23:49:13.765Z,66.79
2019-03-23T23:51:50.061Z,66.93
2019-03-23T23:54:31.824Z,67.03
2019-03-23T23:57:03.162Z,66.90
2019-03-23T23:59:34.335Z,66.34
